sensor_id;sensor_type;location;lat;lon;timestamp;temperature;humidity
42037;DHT22;75222;52.004;5.908;2024-03-17T00:01:44;8.00;77.10
42037;DHT22;75222;52.004;5.908;2024-03-17T00:04:10;7.90;77.10
42037;DHT22;75222;52.004;5.908;2024-03-17T00:06:35;7.90;77.20
42037;DHT22;75222;52.004;5.908;2024-03-17T00:09:01;7.90;77.40
42037;DHT22;75222;52.004;5.908;2024-03-17T00:11:32;7.80;77.40
42037;DHT22;75222;52.004;5.908;2024-03-17T00:13:58;7.90;77.50
42037;DHT22;75222;52.004;5.908;2024-03-17T00:16:24;7.90;77.40
42037;DHT22;75222;52.004;5.908;2024-03-17T00:18:49;7.90;77.40
42037;DHT22;75222;52.004;5.908;2024-03-17T00:21:15;7.90;77.40
42037;DHT22;75222;52.004;5.908;2024-03-17T00:23:40;7.90;77.30
42037;DHT22;75222;52.004;5.908;2024-03-17T00:26:07;7.90;77.40
42037;DHT22;75222;52.004;5.908;2024-03-17T00:28:32;7.90;77.40
42037;DHT22;75222;52.004;5.908;2024-03-17T00:30:58;7.90;77.30
42037;DHT22;75222;52.004;5.908;2024-03-17T00:33:23;8.00;77.40
42037;DHT22;75222;52.004;5.908;2024-03-17T00:35:49;8.00;77.30
42037;DHT22;75222;52.004;5.908;2024-03-17T00:38:15;8.00;77.30
42037;DHT22;75222;52.004;5.908;2024-03-17T00:40:41;8.00;77.30
42037;DHT22;75222;52.004;5.908;2024-03-17T00:43:07;8.00;77.30
42037;DHT22;75222;52.004;5.908;2024-03-17T00:45:33;8.00;77.20
42037;DHT22;75222;52.004;5.908;2024-03-17T00:47:58;8.00;77.30
42037;DHT22;75222;52.004;5.908;2024-03-17T00:50:24;8.00;77.40
42037;DHT22;75222;52.004;5.908;2024-03-17T00:52:50;7.90;77.40
42037;DHT22;75222;52.004;5.908;2024-03-17T00:55:15;7.90;77.60
42037;DHT22;75222;52.004;5.908;2024-03-17T00:57:41;7.80;77.70
42037;DHT22;75222;52.004;5.908;2024-03-17T01:00:07;7.70;77.90
42037;DHT22;75222;52.004;5.908;2024-03-17T01:02:37;7.70;77.90
42037;DHT22;75222;52.004;5.908;2024-03-17T01:05:03;7.80;78.00
42037;DHT22;75222;52.004;5.908;2024-03-17T01:07:31;7.80;77.90
42037;DHT22;75222;52.004;5.908;2024-03-17T01:09:56;7.80;78.00
42037;DHT22;75222;52.004;5.908;2024-03-17T01:12:22;7.70;78.00
42037;DHT22;75222;52.004;5.908;2024-03-17T01:14:48;7.80;78.10
42037;DHT22;75222;52.004;5.908;2024-03-17T01:17:13;7.80;78.10
42037;DHT22;75222;52.004;5.908;2024-03-17T01:19:39;7.80;78.10
42037;DHT22;75222;52.004;5.908;2024-03-17T01:22:04;7.80;78.00
42037;DHT22;75222;52.004;5.908;2024-03-17T01:24:30;7.80;78.10
42037;DHT22;75222;52.004;5.908;2024-03-17T01:27:00;7.80;78.10
42037;DHT22;75222;52.004;5.908;2024-03-17T01:29:26;7.70;78.10
42037;DHT22;75222;52.004;5.908;2024-03-17T01:31:52;7.70;78.20
42037;DHT22;75222;52.004;5.908;2024-03-17T01:34:19;7.60;78.40
42037;DHT22;75222;52.004;5.908;2024-03-17T01:36:44;7.60;78.50
42037;DHT22;75222;52.004;5.908;2024-03-17T01:39:10;7.60;78.70
42037;DHT22;75222;52.004;5.908;2024-03-17T01:41:37;7.50;78.70
42037;DHT22;75222;52.004;5.908;2024-03-17T01:44:02;7.50;78.80
42037;DHT22;75222;52.004;5.908;2024-03-17T01:46:28;7.50;78.80
42037;DHT22;75222;52.004;5.908;2024-03-17T01:48:54;7.50;78.80
42037;DHT22;75222;52.004;5.908;2024-03-17T01:51:20;7.50;78.80
42037;DHT22;75222;52.004;5.908;2024-03-17T01:53:46;7.60;78.90
42037;DHT22;75222;52.004;5.908;2024-03-17T01:56:14;7.60;78.80
42037;DHT22;75222;52.004;5.908;2024-03-17T01:58:44;7.60;78.70
42037;DHT22;75222;52.004;5.908;2024-03-17T02:01:10;7.60;78.70
42037;DHT22;75222;52.004;5.908;2024-03-17T02:03:36;7.70;78.70
42037;DHT22;75222;52.004;5.908;2024-03-17T02:06:01;7.70;78.70
42037;DHT22;75222;52.004;5.908;2024-03-17T02:08:27;7.70;78.70
42037;DHT22;75222;52.004;5.908;2024-03-17T02:10:55;7.70;78.70
42037;DHT22;75222;52.004;5.908;2024-03-17T02:13:21;7.70;78.70
42037;DHT22;75222;52.004;5.908;2024-03-17T02:15:47;7.70;78.70
42037;DHT22;75222;52.004;5.908;2024-03-17T02:18:13;7.70;78.80
42037;DHT22;75222;52.004;5.908;2024-03-17T02:20:39;7.70;78.80
42037;DHT22;75222;52.004;5.908;2024-03-17T02:23:20;7.70;78.80
42037;DHT22;75222;52.004;5.908;2024-03-17T02:25:46;7.80;78.80
42037;DHT22;75222;52.004;5.908;2024-03-17T02:28:13;7.80;78.90
42037;DHT22;75222;52.004;5.908;2024-03-17T02:30:38;7.80;78.80
42037;DHT22;75222;52.004;5.908;2024-03-17T02:33:04;7.70;78.90
42037;DHT22;75222;52.004;5.908;2024-03-17T02:35:30;7.70;79.00
42037;DHT22;75222;52.004;5.908;2024-03-17T02:37:55;7.70;79.10
42037;DHT22;75222;52.004;5.908;2024-03-17T02:40:21;7.70;79.20
42037;DHT22;75222;52.004;5.908;2024-03-17T02:42:46;7.70;79.30
42037;DHT22;75222;52.004;5.908;2024-03-17T02:45:12;7.60;79.30
42037;DHT22;75222;52.004;5.908;2024-03-17T02:47:38;7.70;79.40
42037;DHT22;75222;52.004;5.908;2024-03-17T02:50:04;7.70;79.30
42037;DHT22;75222;52.004;5.908;2024-03-17T02:52:30;7.70;79.30
42037;DHT22;75222;52.004;5.908;2024-03-17T02:54:56;7.60;79.40
42037;DHT22;75222;52.004;5.908;2024-03-17T02:57:22;7.60;79.50
42037;DHT22;75222;52.004;5.908;2024-03-17T02:59:50;7.60;79.50
42037;DHT22;75222;52.004;5.908;2024-03-17T03:02:17;7.70;79.60
42037;DHT22;75222;52.004;5.908;2024-03-17T03:04:42;7.70;79.50
42037;DHT22;75222;52.004;5.908;2024-03-17T03:07:08;7.70;79.50
42037;DHT22;75222;52.004;5.908;2024-03-17T03:09:34;7.70;79.50
42037;DHT22;75222;52.004;5.908;2024-03-17T03:12:00;7.70;79.50
42037;DHT22;75222;52.004;5.908;2024-03-17T03:14:28;7.80;79.50
42037;DHT22;75222;52.004;5.908;2024-03-17T03:16:53;7.80;79.40
42037;DHT22;75222;52.004;5.908;2024-03-17T03:19:19;7.70;79.40
42037;DHT22;75222;52.004;5.908;2024-03-17T03:21:45;7.70;79.50
42037;DHT22;75222;52.004;5.908;2024-03-17T03:24:11;7.70;79.60
42037;DHT22;75222;52.004;5.908;2024-03-17T03:26:37;7.70;79.50
42037;DHT22;75222;52.004;5.908;2024-03-17T03:29:04;7.70;79.60
42037;DHT22;75222;52.004;5.908;2024-03-17T03:31:33;7.70;79.70
42037;DHT22;75222;52.004;5.908;2024-03-17T03:33:59;7.70;79.80
42037;DHT22;75222;52.004;5.908;2024-03-17T03:36:29;7.70;79.80
42037;DHT22;75222;52.004;5.908;2024-03-17T03:38:55;7.70;79.90
42037;DHT22;75222;52.004;5.908;2024-03-17T03:41:23;7.70;79.90
42037;DHT22;75222;52.004;5.908;2024-03-17T03:43:49;7.80;79.90
42037;DHT22;75222;52.004;5.908;2024-03-17T03:46:14;7.80;79.80
42037;DHT22;75222;52.004;5.908;2024-03-17T03:48:40;7.80;79.80
42037;DHT22;75222;52.004;5.908;2024-03-17T03:51:07;7.80;79.70
42037;DHT22;75222;52.004;5.908;2024-03-17T03:53:33;7.90;79.80
42037;DHT22;75222;52.004;5.908;2024-03-17T03:56:00;7.80;79.70
42037;DHT22;75222;52.004;5.908;2024-03-17T03:58:34;7.90;79.80
42037;DHT22;75222;52.004;5.908;2024-03-17T04:01:04;7.90;79.80
42037;DHT22;75222;52.004;5.908;2024-03-17T04:03:30;7.80;79.90
42037;DHT22;75222;52.004;5.908;2024-03-17T04:06:06;7.80;79.90
42037;DHT22;75222;52.004;5.908;2024-03-17T04:08:37;7.90;79.90
42037;DHT22;75222;52.004;5.908;2024-03-17T04:11:05;7.80;80.00
42037;DHT22;75222;52.004;5.908;2024-03-17T04:13:31;7.80;80.10
42037;DHT22;75222;52.004;5.908;2024-03-17T04:15:57;7.80;80.20
42037;DHT22;75222;52.004;5.908;2024-03-17T04:18:25;7.80;80.20
42037;DHT22;75222;52.004;5.908;2024-03-17T04:20:52;7.80;80.10
42037;DHT22;75222;52.004;5.908;2024-03-17T04:23:21;7.80;80.10
42037;DHT22;75222;52.004;5.908;2024-03-17T04:25:48;7.90;80.10
42037;DHT22;75222;52.004;5.908;2024-03-17T04:28:14;7.80;80.10
42037;DHT22;75222;52.004;5.908;2024-03-17T04:30:40;7.80;80.30
42037;DHT22;75222;52.004;5.908;2024-03-17T04:33:06;7.80;80.30
42037;DHT22;75222;52.004;5.908;2024-03-17T04:35:36;7.80;80.40
42037;DHT22;75222;52.004;5.908;2024-03-17T04:38:01;7.80;80.40
42037;DHT22;75222;52.004;5.908;2024-03-17T04:40:27;7.80;80.50
42037;DHT22;75222;52.004;5.908;2024-03-17T04:42:53;7.70;80.50
42037;DHT22;75222;52.004;5.908;2024-03-17T04:45:18;7.70;80.50
42037;DHT22;75222;52.004;5.908;2024-03-17T04:47:44;7.70;80.50
42037;DHT22;75222;52.004;5.908;2024-03-17T04:50:09;7.80;80.60
42037;DHT22;75222;52.004;5.908;2024-03-17T04:52:35;7.80;80.60
42037;DHT22;75222;52.004;5.908;2024-03-17T04:55:00;7.70;80.70
42037;DHT22;75222;52.004;5.908;2024-03-17T04:57:26;7.70;80.70
42037;DHT22;75222;52.004;5.908;2024-03-17T04:59:52;7.70;80.70
42037;DHT22;75222;52.004;5.908;2024-03-17T05:02:17;7.70;80.80
42037;DHT22;75222;52.004;5.908;2024-03-17T05:04:43;7.70;80.80
42037;DHT22;75222;52.004;5.908;2024-03-17T05:07:08;7.70;80.80
42037;DHT22;75222;52.004;5.908;2024-03-17T05:09:34;7.70;80.90
42037;DHT22;75222;52.004;5.908;2024-03-17T05:12:00;7.60;81.10
42037;DHT22;75222;52.004;5.908;2024-03-17T05:14:26;7.60;81.30
42037;DHT22;75222;52.004;5.908;2024-03-17T05:16:52;7.60;81.40
42037;DHT22;75222;52.004;5.908;2024-03-17T05:19:17;7.50;81.50
42037;DHT22;75222;52.004;5.908;2024-03-17T05:21:44;7.50;81.60
42037;DHT22;75222;52.004;5.908;2024-03-17T05:24:10;7.50;81.60
42037;DHT22;75222;52.004;5.908;2024-03-17T05:26:36;7.60;81.60
42037;DHT22;75222;52.004;5.908;2024-03-17T05:29:02;7.70;81.50
42037;DHT22;75222;52.004;5.908;2024-03-17T05:31:28;7.80;81.50
42037;DHT22;75222;52.004;5.908;2024-03-17T05:33:53;7.90;81.30
42037;DHT22;75222;52.004;5.908;2024-03-17T05:36:19;8.00;81.20
42037;DHT22;75222;52.004;5.908;2024-03-17T05:38:45;8.00;81.00
42037;DHT22;75222;52.004;5.908;2024-03-17T05:41:11;8.10;81.00
42037;DHT22;75222;52.004;5.908;2024-03-17T05:43:38;8.10;80.90
42037;DHT22;75222;52.004;5.908;2024-03-17T05:46:08;8.10;80.90
42037;DHT22;75222;52.004;5.908;2024-03-17T05:48:38;8.10;81.00
42037;DHT22;75222;52.004;5.908;2024-03-17T05:51:11;8.10;81.00
42037;DHT22;75222;52.004;5.908;2024-03-17T05:53:38;8.10;81.00
42037;DHT22;75222;52.004;5.908;2024-03-17T05:56:07;8.10;81.00
42037;DHT22;75222;52.004;5.908;2024-03-17T05:58:34;8.10;81.00
42037;DHT22;75222;52.004;5.908;2024-03-17T06:01:02;8.10;81.10
42037;DHT22;75222;52.004;5.908;2024-03-17T06:03:27;8.10;81.10
42037;DHT22;75222;52.004;5.908;2024-03-17T06:05:53;8.10;81.10
42037;DHT22;75222;52.004;5.908;2024-03-17T06:08:19;8.20;81.10
42037;DHT22;75222;52.004;5.908;2024-03-17T06:10:47;8.10;81.10
42037;DHT22;75222;52.004;5.908;2024-03-17T06:13:13;8.10;81.30
42037;DHT22;75222;52.004;5.908;2024-03-17T06:15:41;8.20;81.20
42037;DHT22;75222;52.004;5.908;2024-03-17T06:18:08;8.20;81.20
42037;DHT22;75222;52.004;5.908;2024-03-17T06:20:35;8.20;81.10
42037;DHT22;75222;52.004;5.908;2024-03-17T06:23:04;8.30;81.10
42037;DHT22;75222;52.004;5.908;2024-03-17T06:25:30;8.30;81.10
42037;DHT22;75222;52.004;5.908;2024-03-17T06:27:55;8.30;81.20
42037;DHT22;75222;52.004;5.908;2024-03-17T06:30:22;8.30;81.20
42037;DHT22;75222;52.004;5.908;2024-03-17T06:32:48;8.40;81.20
42037;DHT22;75222;52.004;5.908;2024-03-17T06:35:14;8.40;81.30
42037;DHT22;75222;52.004;5.908;2024-03-17T06:37:44;8.50;81.10
42037;DHT22;75222;52.004;5.908;2024-03-17T06:40:14;8.60;81.00
42037;DHT22;75222;52.004;5.908;2024-03-17T06:42:39;8.60;80.90
42037;DHT22;75222;52.004;5.908;2024-03-17T06:45:06;8.60;80.90
42037;DHT22;75222;52.004;5.908;2024-03-17T06:47:34;8.70;81.00
42037;DHT22;75222;52.004;5.908;2024-03-17T06:50:00;8.80;80.90
42037;DHT22;75222;52.004;5.908;2024-03-17T06:52:26;8.80;80.80
42037;DHT22;75222;52.004;5.908;2024-03-17T06:54:51;8.80;80.70
42037;DHT22;75222;52.004;5.908;2024-03-17T06:57:17;8.80;80.70
42037;DHT22;75222;52.004;5.908;2024-03-17T06:59:43;8.80;80.80
42037;DHT22;75222;52.004;5.908;2024-03-17T07:02:10;8.80;81.10
42037;DHT22;75222;52.004;5.908;2024-03-17T07:04:38;8.80;81.20
42037;DHT22;75222;52.004;5.908;2024-03-17T07:07:03;8.80;81.20
42037;DHT22;75222;52.004;5.908;2024-03-17T07:09:29;8.90;81.10
42037;DHT22;75222;52.004;5.908;2024-03-17T07:11:54;9.00;81.10
42037;DHT22;75222;52.004;5.908;2024-03-17T07:14:20;9.00;81.60
42037;DHT22;75222;52.004;5.908;2024-03-17T07:16:45;9.00;81.00
42037;DHT22;75222;52.004;5.908;2024-03-17T07:19:11;9.10;80.90
42037;DHT22;75222;52.004;5.908;2024-03-17T07:21:36;9.10;80.90
42037;DHT22;75222;52.004;5.908;2024-03-17T07:24:02;9.20;80.80
42037;DHT22;75222;52.004;5.908;2024-03-17T07:26:30;9.20;80.70
42037;DHT22;75222;52.004;5.908;2024-03-17T07:28:56;9.30;80.60
42037;DHT22;75222;52.004;5.908;2024-03-17T07:31:21;9.30;80.50
42037;DHT22;75222;52.004;5.908;2024-03-17T07:33:47;9.30;80.50
42037;DHT22;75222;52.004;5.908;2024-03-17T07:36:13;9.40;80.40
42037;DHT22;75222;52.004;5.908;2024-03-17T07:38:39;9.40;80.20
42037;DHT22;75222;52.004;5.908;2024-03-17T07:41:06;9.40;80.10
42037;DHT22;75222;52.004;5.908;2024-03-17T07:43:34;9.40;80.20
42037;DHT22;75222;52.004;5.908;2024-03-17T07:46:10;9.60;80.30
42037;DHT22;75222;52.004;5.908;2024-03-17T07:48:40;9.80;80.00
42037;DHT22;75222;52.004;5.908;2024-03-17T07:51:08;9.90;79.60
42037;DHT22;75222;52.004;5.908;2024-03-17T07:53:37;10.10;79.40
42037;DHT22;75222;52.004;5.908;2024-03-17T07:56:07;10.10;79.10
42037;DHT22;75222;52.004;5.908;2024-03-17T07:58:35;10.20;79.10
42037;DHT22;75222;52.004;5.908;2024-03-17T08:01:05;10.20;79.00
42037;DHT22;75222;52.004;5.908;2024-03-17T08:03:33;10.30;78.90
42037;DHT22;75222;52.004;5.908;2024-03-17T08:05:59;10.30;78.80
42037;DHT22;75222;52.004;5.908;2024-03-17T08:08:26;10.40;78.70
42037;DHT22;75222;52.004;5.908;2024-03-17T08:10:51;10.40;78.60
42037;DHT22;75222;52.004;5.908;2024-03-17T08:13:18;10.40;78.70
42037;DHT22;75222;52.004;5.908;2024-03-17T08:15:44;10.50;78.60
42037;DHT22;75222;52.004;5.908;2024-03-17T08:18:11;10.50;78.60
42037;DHT22;75222;52.004;5.908;2024-03-17T08:20:40;10.50;78.60
42037;DHT22;75222;52.004;5.908;2024-03-17T08:23:08;10.60;78.50
42037;DHT22;75222;52.004;5.908;2024-03-17T08:25:34;10.70;78.40
42037;DHT22;75222;52.004;5.908;2024-03-17T08:28:00;10.70;78.30
42037;DHT22;75222;52.004;5.908;2024-03-17T08:30:26;10.90;78.20
42037;DHT22;75222;52.004;5.908;2024-03-17T08:32:51;10.90;77.90
42037;DHT22;75222;52.004;5.908;2024-03-17T08:35:17;11.00;77.20
42037;DHT22;75222;52.004;5.908;2024-03-17T08:37:42;11.00;77.50
42037;DHT22;75222;52.004;5.908;2024-03-17T08:40:09;11.10;77.50
42037;DHT22;75222;52.004;5.908;2024-03-17T08:42:36;11.30;77.50
42037;DHT22;75222;52.004;5.908;2024-03-17T08:45:02;11.40;77.10
42037;DHT22;75222;52.004;5.908;2024-03-17T08:47:28;11.50;76.90
42037;DHT22;75222;52.004;5.908;2024-03-17T08:49:54;11.60;76.50
42037;DHT22;75222;52.004;5.908;2024-03-17T08:52:19;11.70;76.60
42037;DHT22;75222;52.004;5.908;2024-03-17T08:54:49;11.80;76.40
42037;DHT22;75222;52.004;5.908;2024-03-17T08:57:17;11.70;75.80
42037;DHT22;75222;52.004;5.908;2024-03-17T08:59:46;11.70;76.20
42037;DHT22;75222;52.004;5.908;2024-03-17T09:02:13;11.70;75.90
42037;DHT22;75222;52.004;5.908;2024-03-17T09:04:42;11.70;76.20
42037;DHT22;75222;52.004;5.908;2024-03-17T09:07:07;11.70;76.70
42037;DHT22;75222;52.004;5.908;2024-03-17T09:09:33;11.70;76.20
42037;DHT22;75222;52.004;5.908;2024-03-17T09:11:59;11.70;75.90
42037;DHT22;75222;52.004;5.908;2024-03-17T09:14:24;11.80;76.10
42037;DHT22;75222;52.004;5.908;2024-03-17T09:16:50;11.80;75.70
42037;DHT22;75222;52.004;5.908;2024-03-17T09:19:16;11.80;75.80
42037;DHT22;75222;52.004;5.908;2024-03-17T09:21:41;11.70;75.20
42037;DHT22;75222;52.004;5.908;2024-03-17T09:24:07;11.70;75.60
42037;DHT22;75222;52.004;5.908;2024-03-17T09:26:33;11.60;75.70
42037;DHT22;75222;52.004;5.908;2024-03-17T09:28:59;11.60;75.60
42037;DHT22;75222;52.004;5.908;2024-03-17T09:31:25;11.70;75.80
42037;DHT22;75222;52.004;5.908;2024-03-17T09:33:51;11.80;75.50
42037;DHT22;75222;52.004;5.908;2024-03-17T09:36:16;11.80;75.20
42037;DHT22;75222;52.004;5.908;2024-03-17T09:38:43;11.70;75.10
42037;DHT22;75222;52.004;5.908;2024-03-17T09:41:23;11.70;74.90
42037;DHT22;75222;52.004;5.908;2024-03-17T09:43:55;11.80;75.40
42037;DHT22;75222;52.004;5.908;2024-03-17T09:46:23;11.80;75.10
42037;DHT22;75222;52.004;5.908;2024-03-17T09:48:49;11.80;75.00
42037;DHT22;75222;52.004;5.908;2024-03-17T09:51:24;11.80;75.00
42037;DHT22;75222;52.004;5.908;2024-03-17T09:53:51;11.90;74.90
42037;DHT22;75222;52.004;5.908;2024-03-17T09:56:21;11.80;74.40
42037;DHT22;75222;52.004;5.908;2024-03-17T09:58:48;11.70;74.90
42037;DHT22;75222;52.004;5.908;2024-03-17T10:01:14;11.80;75.20
42037;DHT22;75222;52.004;5.908;2024-03-17T10:06:29;12.10;75.00
42037;DHT22;75222;52.004;5.908;2024-03-17T10:08:56;12.30;74.80
42037;DHT22;75222;52.004;5.908;2024-03-17T10:11:23;12.20;73.40
42037;DHT22;75222;52.004;5.908;2024-03-17T10:14:00;12.20;74.20
42037;DHT22;75222;52.004;5.908;2024-03-17T10:16:27;12.20;74.10
42037;DHT22;75222;52.004;5.908;2024-03-17T10:19:15;12.30;74.10
42037;DHT22;75222;52.004;5.908;2024-03-17T10:21:42;12.40;74.00
42037;DHT22;75222;52.004;5.908;2024-03-17T10:24:11;12.40;73.90
42037;DHT22;75222;52.004;5.908;2024-03-17T10:26:46;12.50;73.90
42037;DHT22;75222;52.004;5.908;2024-03-17T10:29:35;12.50;73.90
42037;DHT22;75222;52.004;5.908;2024-03-17T10:32:16;12.60;74.40
42037;DHT22;75222;52.004;5.908;2024-03-17T10:34:42;12.50;72.90
42037;DHT22;75222;52.004;5.908;2024-03-17T10:37:20;12.50;73.30
42037;DHT22;75222;52.004;5.908;2024-03-17T10:39:51;12.60;73.60
42037;DHT22;75222;52.004;5.908;2024-03-17T10:42:24;12.70;73.30
42037;DHT22;75222;52.004;5.908;2024-03-17T10:44:51;12.70;73.10
42037;DHT22;75222;52.004;5.908;2024-03-17T10:47:25;12.80;73.40
42037;DHT22;75222;52.004;5.908;2024-03-17T10:49:52;12.90;73.20
42037;DHT22;75222;52.004;5.908;2024-03-17T10:52:19;13.00;73.30
42037;DHT22;75222;52.004;5.908;2024-03-17T10:54:49;13.00;72.70
42037;DHT22;75222;52.004;5.908;2024-03-17T10:59:48;13.10;73.40
42037;DHT22;75222;52.004;5.908;2024-03-17T11:02:24;13.00;72.00
42037;DHT22;75222;52.004;5.908;2024-03-17T11:04:52;13.00;72.70
42037;DHT22;75222;52.004;5.908;2024-03-17T11:07:19;13.00;72.50
42037;DHT22;75222;52.004;5.908;2024-03-17T11:09:46;13.00;72.60
42037;DHT22;75222;52.004;5.908;2024-03-17T11:20:35;13.20;72.40
42037;DHT22;75222;52.004;5.908;2024-03-17T11:23:02;13.30;72.20
42037;DHT22;75222;52.004;5.908;2024-03-17T11:28:08;13.10;72.50
42037;DHT22;75222;52.004;5.908;2024-03-17T11:30:42;13.20;72.60
42037;DHT22;75222;52.004;5.908;2024-03-17T11:38:54;13.10;72.60
42037;DHT22;75222;52.004;5.908;2024-03-17T11:41:43;13.10;72.80
42037;DHT22;75222;52.004;5.908;2024-03-17T11:46:39;13.00;72.60
42037;DHT22;75222;52.004;5.908;2024-03-17T11:49:05;13.00;72.70
42037;DHT22;75222;52.004;5.908;2024-03-17T11:51:34;13.10;72.60
42037;DHT22;75222;52.004;5.908;2024-03-17T11:54:01;13.00;72.20
42037;DHT22;75222;52.004;5.908;2024-03-17T11:56:27;13.10;72.70
42037;DHT22;75222;52.004;5.908;2024-03-17T11:59:06;13.20;72.60
42037;DHT22;75222;52.004;5.908;2024-03-17T12:01:34;13.20;72.50
42037;DHT22;75222;52.004;5.908;2024-03-17T12:04:00;13.30;72.40
42037;DHT22;75222;52.004;5.908;2024-03-17T12:06:33;13.40;72.40
42037;DHT22;75222;52.004;5.908;2024-03-17T12:09:21;13.40;72.20
42037;DHT22;75222;52.004;5.908;2024-03-17T12:12:13;13.20;72.30
42037;DHT22;75222;52.004;5.908;2024-03-17T12:14:39;13.20;72.90
42037;DHT22;75222;52.004;5.908;2024-03-17T12:17:07;13.30;72.80
42037;DHT22;75222;52.004;5.908;2024-03-17T12:19:34;13.30;72.90
42037;DHT22;75222;52.004;5.908;2024-03-17T12:22:01;13.30;72.40
42037;DHT22;75222;52.004;5.908;2024-03-17T12:24:31;13.20;72.50
42037;DHT22;75222;52.004;5.908;2024-03-17T12:26:58;13.10;72.80
42037;DHT22;75222;52.004;5.908;2024-03-17T12:29:33;13.10;72.80
42037;DHT22;75222;52.004;5.908;2024-03-17T12:32:02;13.10;72.50
42037;DHT22;75222;52.004;5.908;2024-03-17T12:34:30;13.20;72.70
42037;DHT22;75222;52.004;5.908;2024-03-17T12:36:57;13.20;72.40
42037;DHT22;75222;52.004;5.908;2024-03-17T12:42:08;13.40;72.40
42037;DHT22;75222;52.004;5.908;2024-03-17T12:47:14;13.60;71.90
42037;DHT22;75222;52.004;5.908;2024-03-17T12:49:51;13.50;71.80
42037;DHT22;75222;52.004;5.908;2024-03-17T12:52:18;13.60;72.00
42037;DHT22;75222;52.004;5.908;2024-03-17T12:54:44;13.60;71.80
42037;DHT22;75222;52.004;5.908;2024-03-17T12:57:20;13.70;71.80
42037;DHT22;75222;52.004;5.908;2024-03-17T13:00:17;13.70;71.70
42037;DHT22;75222;52.004;5.908;2024-03-17T13:03:33;13.90;71.90
42037;DHT22;75222;52.004;5.908;2024-03-17T13:06:03;13.80;71.60
42037;DHT22;75222;52.004;5.908;2024-03-17T13:08:29;13.80;71.60
42037;DHT22;75222;52.004;5.908;2024-03-17T13:10:57;13.80;71.50
42037;DHT22;75222;52.004;5.908;2024-03-17T13:13:22;13.80;71.40
42037;DHT22;75222;52.004;5.908;2024-03-17T13:15:48;13.80;71.30
42037;DHT22;75222;52.004;5.908;2024-03-17T13:18:17;13.80;71.50
42037;DHT22;75222;52.004;5.908;2024-03-17T13:20:45;13.80;71.60
42037;DHT22;75222;52.004;5.908;2024-03-17T13:23:11;13.80;71.50
42037;DHT22;75222;52.004;5.908;2024-03-17T13:25:37;13.60;71.50
42037;DHT22;75222;52.004;5.908;2024-03-17T13:28:04;13.70;72.20
42037;DHT22;75222;52.004;5.908;2024-03-17T13:30:32;13.60;71.70
42037;DHT22;75222;52.004;5.908;2024-03-17T13:32:59;13.70;71.80
42037;DHT22;75222;52.004;5.908;2024-03-17T13:35:29;13.70;71.70
42037;DHT22;75222;52.004;5.908;2024-03-17T13:37:56;13.70;71.50
42037;DHT22;75222;52.004;5.908;2024-03-17T13:40:25;13.70;72.40
42037;DHT22;75222;52.004;5.908;2024-03-17T13:42:52;13.70;71.80
42037;DHT22;75222;52.004;5.908;2024-03-17T13:45:20;13.80;72.50
42037;DHT22;75222;52.004;5.908;2024-03-17T13:48:06;13.80;71.70
42037;DHT22;75222;52.004;5.908;2024-03-17T13:50:36;13.80;71.50
42037;DHT22;75222;52.004;5.908;2024-03-17T13:53:02;13.70;71.60
42037;DHT22;75222;52.004;5.908;2024-03-17T13:55:28;13.60;71.90
42037;DHT22;75222;52.004;5.908;2024-03-17T13:57:56;13.70;72.00
42037;DHT22;75222;52.004;5.908;2024-03-17T14:00:24;13.70;71.90
42037;DHT22;75222;52.004;5.908;2024-03-17T14:02:51;13.70;71.80
42037;DHT22;75222;52.004;5.908;2024-03-17T14:05:20;13.70;72.10
42037;DHT22;75222;52.004;5.908;2024-03-17T14:07:47;13.70;72.80
42037;DHT22;75222;52.004;5.908;2024-03-17T14:10:16;13.80;72.30
42037;DHT22;75222;52.004;5.908;2024-03-17T14:12:42;13.80;72.30
42037;DHT22;75222;52.004;5.908;2024-03-17T14:15:08;13.90;72.20
42037;DHT22;75222;52.004;5.908;2024-03-17T14:17:40;13.80;72.30
42037;DHT22;75222;52.004;5.908;2024-03-17T14:20:07;13.80;72.60
42037;DHT22;75222;52.004;5.908;2024-03-17T14:22:46;13.80;72.50
42037;DHT22;75222;52.004;5.908;2024-03-17T14:25:16;13.70;72.50
42037;DHT22;75222;52.004;5.908;2024-03-17T14:27:43;13.70;72.70
42037;DHT22;75222;52.004;5.908;2024-03-17T14:30:10;13.80;72.70
42037;DHT22;75222;52.004;5.908;2024-03-17T14:32:38;13.70;72.80
42037;DHT22;75222;52.004;5.908;2024-03-17T14:35:04;13.70;72.90
42037;DHT22;75222;52.004;5.908;2024-03-17T14:37:31;13.70;72.90
42037;DHT22;75222;52.004;5.908;2024-03-17T14:39:56;13.80;72.70
42037;DHT22;75222;52.004;5.908;2024-03-17T14:42:22;13.80;72.90
42037;DHT22;75222;52.004;5.908;2024-03-17T14:44:48;13.80;72.70
42037;DHT22;75222;52.004;5.908;2024-03-17T14:47:14;13.80;72.90
42037;DHT22;75222;52.004;5.908;2024-03-17T14:49:40;13.90;73.00
42037;DHT22;75222;52.004;5.908;2024-03-17T14:52:07;13.90;72.90
42037;DHT22;75222;52.004;5.908;2024-03-17T14:54:32;13.90;72.70
42037;DHT22;75222;52.004;5.908;2024-03-17T14:56:58;14.00;72.80
42037;DHT22;75222;52.004;5.908;2024-03-17T14:59:24;14.00;72.70
42037;DHT22;75222;52.004;5.908;2024-03-17T15:01:49;14.00;72.80
42037;DHT22;75222;52.004;5.908;2024-03-17T15:04:15;14.10;72.50
42037;DHT22;75222;52.004;5.908;2024-03-17T15:06:41;14.10;72.50
42037;DHT22;75222;52.004;5.908;2024-03-17T15:09:08;14.10;72.70
42037;DHT22;75222;52.004;5.908;2024-03-17T15:11:34;14.10;72.50
42037;DHT22;75222;52.004;5.908;2024-03-17T15:14:00;14.10;72.50
42037;DHT22;75222;52.004;5.908;2024-03-17T15:16:26;14.10;72.60
42037;DHT22;75222;52.004;5.908;2024-03-17T15:18:51;14.10;72.40
42037;DHT22;75222;52.004;5.908;2024-03-17T15:21:17;14.10;72.60
42037;DHT22;75222;52.004;5.908;2024-03-17T15:23:42;14.20;72.70
42037;DHT22;75222;52.004;5.908;2024-03-17T15:26:08;14.20;72.70
42037;DHT22;75222;52.004;5.908;2024-03-17T15:28:39;14.10;72.40
42037;DHT22;75222;52.004;5.908;2024-03-17T15:31:11;14.10;72.60
42037;DHT22;75222;52.004;5.908;2024-03-17T15:33:38;14.20;72.50
42037;DHT22;75222;52.004;5.908;2024-03-17T15:36:07;14.20;72.60
42037;DHT22;75222;52.004;5.908;2024-03-17T15:38:34;14.20;72.40
42037;DHT22;75222;52.004;5.908;2024-03-17T15:41:04;14.10;72.40
42037;DHT22;75222;52.004;5.908;2024-03-17T15:43:36;14.20;72.80
42037;DHT22;75222;52.004;5.908;2024-03-17T15:46:06;14.30;72.70
42037;DHT22;75222;52.004;5.908;2024-03-17T15:48:33;14.30;72.50
42037;DHT22;75222;52.004;5.908;2024-03-17T15:50:58;14.30;72.20
42037;DHT22;75222;52.004;5.908;2024-03-17T15:53:24;14.20;72.40
42037;DHT22;75222;52.004;5.908;2024-03-17T15:55:56;14.20;72.30
42037;DHT22;75222;52.004;5.908;2024-03-17T15:58:23;14.10;72.20
42037;DHT22;75222;52.004;5.908;2024-03-17T16:00:49;14.10;72.20
42037;DHT22;75222;52.004;5.908;2024-03-17T16:03:14;14.00;72.50
42037;DHT22;75222;52.004;5.908;2024-03-17T16:05:47;14.10;72.60
42037;DHT22;75222;52.004;5.908;2024-03-17T16:08:17;14.10;72.60
42037;DHT22;75222;52.004;5.908;2024-03-17T16:10:46;14.10;73.20